createdAt,value
2018-11-22T12:17:51.101Z,38.63
2018-11-22T12:20:25.307Z,42.63
2018-11-22T12:22:59.836Z,37.53
2018-11-22T12:25:34.016Z,38.50
2018-11-22T12:28:08.376Z,38.73
2018-11-22T12:30:42.558Z,39.27
2018-11-22T12:33:22.175Z,39.60
2018-11-22T12:36:01.852Z,37.83
2018-11-22T12:38:36.011Z,38.23
2018-11-22T12:41:10.496Z,34.63
2018-11-22T12:43:44.700Z,39.80
2018-11-22T12:46:18.975Z,39.07
2018-11-22T12:48:53.459Z,38.60
2018-11-22T12:51:27.735Z,41.87
2018-11-22T12:54:02.035Z,39.03
2018-11-22T12:56:36.319Z,37.93
2018-11-22T12:59:10.616Z,36.77
2018-11-22T13:01:44.914Z,34.30
2018-11-22T13:04:19.266Z,36.80
2018-11-22T13:06:53.443Z,36.67
2018-11-22T13:09:27.707Z,32.30
2018-11-22T13:12:01.988Z,33.63
2018-11-22T13:14:36.275Z,34.70
2018-11-22T13:17:10.719Z,39.73
2018-11-22T13:19:45.019Z,34.97
2018-11-22T13:22:19.420Z,36.77
2018-11-22T13:24:53.928Z,35.60
2018-11-22T13:27:28.379Z,39.60
2018-11-22T13:30:02.683Z,40.83
2018-11-22T13:32:36.927Z,40.43
2018-11-22T13:35:12.093Z,40.40
2018-11-22T13:37:47.451Z,40.93
2018-11-22T13:40:21.715Z,41.07
2018-11-22T13:42:56.388Z,41.13
2018-11-22T13:45:30.615Z,37.83
2018-11-22T13:48:06.144Z,39.40
2018-11-22T13:50:42.158Z,38.90
2018-11-22T13:53:14.777Z,42.90
2018-11-22T13:55:48.223Z,43.60
2018-11-22T13:58:22.483Z,37.80
2018-11-22T14:00:56.791Z,38.20
2018-11-22T14:03:31.003Z,40.23
2018-11-22T14:06:05.363Z,38.67
2018-11-22T14:08:52.908Z,41.67
2018-11-22T14:11:27.202Z,41.13
2018-11-22T14:14:22.770Z,41.10
2018-11-22T14:16:57.059Z,41.03
2018-11-22T14:19:31.343Z,37.90
2018-11-22T14:22:05.643Z,39.47
2018-11-22T14:24:39.943Z,43.33
2018-11-22T14:27:14.187Z,39.73
2018-11-22T14:29:48.487Z,39.53
2018-11-22T14:32:22.727Z,40.13
2018-11-22T14:35:00.502Z,37.27
2018-11-22T14:37:31.493Z,35.57
2018-11-22T14:40:07.883Z,38.13
2018-11-22T14:42:42.559Z,40.87
2018-11-22T14:45:17.089Z,39.20
2018-11-22T14:47:52.215Z,38.43
2018-11-22T14:50:42.011Z,39.63
2018-11-22T14:53:18.867Z,38.30
2018-11-22T14:55:53.243Z,36.80
2018-11-22T14:58:27.514Z,37.73
2018-11-22T15:01:01.880Z,37.10
2018-11-22T15:03:36.210Z,41.57
2018-11-22T15:06:10.535Z,42.27
2018-11-22T15:08:44.767Z,38.00
2018-11-22T15:11:20.153Z,35.37
2018-11-22T15:13:54.647Z,43.03
2018-11-22T15:16:29.022Z,42.03
2018-11-22T15:19:03.483Z,41.07
2018-11-22T15:21:37.674Z,42.50
2018-11-22T15:24:11.960Z,44.03
2018-11-22T15:26:46.258Z,43.57
2018-11-22T15:29:20.440Z,41.13
2018-11-22T15:31:54.792Z,38.60
2018-11-22T15:34:28.971Z,41.47
2018-11-22T15:37:03.368Z,41.50
2018-11-22T15:39:37.612Z,43.73
2018-11-22T15:42:12.011Z,40.97
2018-11-22T15:44:46.329Z,43.00
2018-11-22T15:47:20.568Z,46.17
2018-11-22T15:49:54.748Z,46.63
2018-11-22T15:52:29.296Z,45.13
2018-11-22T15:55:03.578Z,43.23
2018-11-22T15:57:38.633Z,48.00
2018-11-22T16:00:16.759Z,46.30
2018-11-22T16:02:51.507Z,45.30
2018-11-22T16:05:26.546Z,42.37
2018-11-22T16:08:00.871Z,46.13
2018-11-22T16:10:36.054Z,46.67
2018-11-22T16:13:11.307Z,47.50
2018-11-22T16:15:47.603Z,46.90
2018-11-22T16:18:21.739Z,44.03
2018-11-22T16:20:56.047Z,49.70
2018-11-22T16:23:30.380Z,47.67
2018-11-22T16:26:04.795Z,51.77
2018-11-22T16:28:38.962Z,50.07
2018-11-22T16:31:13.355Z,48.33
2018-11-22T16:33:47.735Z,44.93
2018-11-22T16:36:22.091Z,46.03
2018-11-22T16:38:56.399Z,52.30
2018-11-22T16:41:30.652Z,47.80
2018-11-22T16:44:05.340Z,55.53
2018-11-22T16:46:39.615Z,49.40
2018-11-22T16:49:13.891Z,51.87
2018-11-22T16:51:48.234Z,55.73
2018-11-22T16:54:22.563Z,44.77
2018-11-22T16:56:56.804Z,59.20
2018-11-22T16:59:31.142Z,52.60
2018-11-22T17:02:05.479Z,49.47
2018-11-22T17:04:39.751Z,64.53
2018-11-22T17:07:14.123Z,52.17
2018-11-22T17:09:48.439Z,52.20
2018-11-22T17:12:22.737Z,53.27
2018-11-22T17:14:57.038Z,51.37
2018-11-22T17:17:31.351Z,49.90
2018-11-22T17:20:06.924Z,55.63
2018-11-22T17:22:41.924Z,49.77
2018-11-22T17:25:17.562Z,50.90
2018-11-22T17:27:53.223Z,59.37
2018-11-22T17:30:29.987Z,52.83
2018-11-22T17:33:04.463Z,49.13
2018-11-22T17:35:39.551Z,55.73
2018-11-22T17:38:14.319Z,52.10
2018-11-22T17:40:49.818Z,54.90
2018-11-22T17:43:24.087Z,49.43
2018-11-22T17:45:58.393Z,47.03
2018-11-22T17:48:32.776Z,47.47
2018-11-22T17:51:07.077Z,52.50
2018-11-22T17:53:41.326Z,52.13
2018-11-22T17:56:15.650Z,57.40
2018-11-22T17:58:49.887Z,51.63
2018-11-22T18:01:24.214Z,51.87
2018-11-22T18:03:58.542Z,46.87
2018-11-22T18:06:32.806Z,54.57
2018-11-22T18:09:08.899Z,53.50
2018-11-22T18:11:43.031Z,54.37
2018-11-22T18:14:17.455Z,51.63
2018-11-22T18:16:51.763Z,55.10
2018-11-22T18:19:26.133Z,55.53
2018-11-22T18:22:00.311Z,52.03
2018-11-22T18:24:34.743Z,55.40
2018-11-22T18:27:09.139Z,49.50
2018-11-22T18:29:43.379Z,47.17
2018-11-22T18:32:17.730Z,51.23
2018-11-22T18:34:52.151Z,59.90
2018-11-22T18:37:26.311Z,51.77
2018-11-22T18:40:01.073Z,52.53
2018-11-22T18:42:35.263Z,51.53
2018-11-22T18:45:11.365Z,49.07
2018-11-22T18:47:46.383Z,51.93
2018-11-22T18:50:22.152Z,50.53
2018-11-22T18:52:56.406Z,54.67
2018-11-22T18:55:30.811Z,49.77
2018-11-22T18:58:05.543Z,52.17
2018-11-22T19:00:41.337Z,55.87
2018-11-22T19:03:17.316Z,54.07
2018-11-22T19:05:51.627Z,50.53
2018-11-22T19:08:25.887Z,46.93
2018-11-22T19:11:00.111Z,54.30
2018-11-22T19:13:34.383Z,45.77
2018-11-22T19:16:08.635Z,52.63
2018-11-22T19:18:42.914Z,49.37
2018-11-22T19:21:17.303Z,52.30
2018-11-22T19:23:51.723Z,48.87
2018-11-22T19:26:26.019Z,47.43
2018-11-22T19:29:00.547Z,54.17
2018-11-22T19:31:34.862Z,57.53
2018-11-22T19:34:09.144Z,53.40
2018-11-22T19:36:43.548Z,48.47
2018-11-22T19:39:17.899Z,48.67
2018-11-22T19:41:52.117Z,50.77
2018-11-22T19:44:26.393Z,49.20
2018-11-22T19:47:00.662Z,47.83
2018-11-22T19:49:34.974Z,50.80
2018-11-22T19:52:09.275Z,53.17
2018-11-22T19:54:43.683Z,49.73
2018-11-22T19:57:17.964Z,51.30
2018-11-22T19:59:52.283Z,55.97
2018-11-22T20:02:26.611Z,53.60
2018-11-22T20:05:00.931Z,51.13
2018-11-22T20:07:35.159Z,50.17
2018-11-22T20:10:14.711Z,50.80
2018-11-22T20:12:48.983Z,51.43
2018-11-22T20:15:23.170Z,49.57
2018-11-22T20:17:58.265Z,45.53
2018-11-22T20:20:32.469Z,48.63
2018-11-22T20:23:06.816Z,50.10
2018-11-22T20:25:41.050Z,46.20
2018-11-22T20:28:15.349Z,48.40
2018-11-22T20:30:49.707Z,54.93
2018-11-22T20:33:24.008Z,49.47
2018-11-22T20:35:58.391Z,49.57
2018-11-22T20:38:32.690Z,49.30
2018-11-22T20:41:07.028Z,51.50
2018-11-22T20:43:41.303Z,44.53
2018-11-22T20:46:15.579Z,46.67
2018-11-22T20:48:50.042Z,46.67
2018-11-22T20:51:24.383Z,48.77
2018-11-22T20:53:58.639Z,48.33
2018-11-22T20:56:32.919Z,43.57
2018-11-22T20:59:07.219Z,44.40
2018-11-22T21:01:41.662Z,40.33
2018-11-22T21:04:15.930Z,45.10
2018-11-22T21:06:50.301Z,46.27
2018-11-22T21:09:24.682Z,45.07
2018-11-22T21:11:58.963Z,43.53
2018-11-22T21:14:33.287Z,44.27
2018-11-22T21:17:07.699Z,41.50
2018-11-22T21:19:42.071Z,49.57
2018-11-22T21:22:16.409Z,44.13
2018-11-22T21:24:50.658Z,43.43
2018-11-22T21:27:24.868Z,48.80
2018-11-22T21:29:59.108Z,42.70
2018-11-22T21:32:33.396Z,41.50
2018-11-22T21:35:08.016Z,41.60
2018-11-22T21:37:42.551Z,45.70
2018-11-22T21:40:17.462Z,45.10
2018-11-22T21:42:51.769Z,48.77
2018-11-22T21:45:26.611Z,52.37
2018-11-22T21:48:00.895Z,57.35
2018-11-22T21:50:35.119Z,56.03
2018-11-22T21:53:09.475Z,49.57
2018-11-22T21:55:43.770Z,50.23
2018-11-22T21:58:18.174Z,47.20
2018-11-22T22:00:52.384Z,46.23
2018-11-22T22:03:26.859Z,43.00
2018-11-22T22:06:01.167Z,43.93
2018-11-22T22:08:35.530Z,42.87
2018-11-22T22:11:09.794Z,46.50
2018-11-22T22:13:44.083Z,45.53
2018-11-22T22:16:18.341Z,41.80
2018-11-22T22:18:52.886Z,41.93
2018-11-22T22:21:27.028Z,48.93
2018-11-22T22:24:01.325Z,43.70
2018-11-22T22:26:35.714Z,44.13
2018-11-22T22:29:09.967Z,41.90
2018-11-22T22:31:44.250Z,45.77
2018-11-22T22:34:18.860Z,41.70
2018-11-22T22:36:53.024Z,44.93
2018-11-22T22:39:27.170Z,48.47
2018-11-22T22:42:01.559Z,42.10
2018-11-22T22:44:35.907Z,45.33
2018-11-22T22:47:10.312Z,43.53
2018-11-22T22:49:44.567Z,44.20
2018-11-22T22:52:19.098Z,43.27
2018-11-22T22:54:53.371Z,41.90
2018-11-22T22:57:27.783Z,45.53
2018-11-22T23:00:02.246Z,39.50
2018-11-22T23:02:36.455Z,41.17
2018-11-22T23:05:10.740Z,41.40
2018-11-22T23:07:45.315Z,45.90
2018-11-22T23:10:20.034Z,46.97
2018-11-22T23:12:54.974Z,44.47
2018-11-22T23:15:30.101Z,45.40
2018-11-22T23:18:04.331Z,42.00
2018-11-22T23:20:38.731Z,48.03
2018-11-22T23:23:13.038Z,45.60
2018-11-22T23:25:47.334Z,44.10
2018-11-22T23:28:21.673Z,41.40
2018-11-22T23:30:55.942Z,44.90
2018-11-22T23:33:30.275Z,43.13
2018-11-22T23:36:05.127Z,45.90
2018-11-22T23:38:39.488Z,38.93
2018-11-22T23:41:13.792Z,38.13
2018-11-22T23:43:47.995Z,42.37
2018-11-22T23:46:22.374Z,39.60
2018-11-22T23:48:56.775Z,45.20
2018-11-22T23:51:31.003Z,40.73
2018-11-22T23:54:05.475Z,43.87
2018-11-22T23:56:39.859Z,42.73
2018-11-22T23:59:14.135Z,42.80
